sensor_id;sensor_type;location;lat;lon;timestamp;P1;durP1;ratioP1;P2;durP2;ratioP2
12800;SDS011;6464;42.494;27.470;2023-04-24T04:05:06;0.00;;;0.00;;
12800;SDS011;6464;42.494;27.470;2023-04-24T04:10:14;0.00;;;0.00;;
12800;SDS011;6464;42.494;27.470;2023-04-24T04:12:42;0.00;;;0.00;;
12800;SDS011;6464;42.494;27.470;2023-04-24T04:15:09;0.00;;;0.00;;
12800;SDS011;6464;42.494;27.470;2023-04-24T04:17:37;0.00;;;0.00;;
12800;SDS011;6464;42.494;27.470;2023-04-24T04:20:07;0.00;;;0.00;;
12800;SDS011;6464;42.494;27.470;2023-04-24T04:22:35;0.00;;;0.00;;
12800;SDS011;6464;42.494;27.470;2023-04-24T04:25:03;0.00;;;0.00;;
12800;SDS011;6464;42.494;27.470;2023-04-24T04:27:30;0.00;;;0.00;;
12800;SDS011;6464;42.494;27.470;2023-04-24T04:29:59;0.00;;;0.00;;
12800;SDS011;6464;42.494;27.470;2023-04-24T04:32:38;0.00;;;0.00;;
12800;SDS011;6464;42.494;27.470;2023-04-24T04:35:20;0.00;;;0.00;;
12800;SDS011;6464;42.494;27.470;2023-04-24T04:40:50;0.00;;;0.00;;
12800;SDS011;6464;42.494;27.470;2023-04-24T04:46:13;0.00;;;0.00;;
12800;SDS011;6464;42.494;27.470;2023-04-24T04:49:07;0.00;;;0.00;;
12800;SDS011;6464;42.494;27.470;2023-04-24T04:51:40;0.00;;;0.00;;
12800;SDS011;6464;42.494;27.470;2023-04-24T04:54:15;0.00;;;0.00;;
12800;SDS011;6464;42.494;27.470;2023-04-24T04:56:49;0.00;;;0.00;;
12800;SDS011;6464;42.494;27.470;2023-04-24T04:59:36;0.00;;;0.00;;
12800;SDS011;6464;42.494;27.470;2023-04-24T05:02:16;0.00;;;0.00;;
12800;SDS011;6464;42.494;27.470;2023-04-24T05:04:44;0.00;;;0.00;;
12800;SDS011;6464;42.494;27.470;2023-04-24T05:07:26;0.00;;;0.00;;
12800;SDS011;6464;42.494;27.470;2023-04-24T05:10:04;0.00;;;0.00;;
12800;SDS011;6464;42.494;27.470;2023-04-24T05:20:40;0.13;;;0.13;;
12800;SDS011;6464;42.494;27.470;2023-04-24T05:23:22;0.10;;;0.10;;
12800;SDS011;6464;42.494;27.470;2023-04-24T05:25:51;0.20;;;0.20;;
12800;SDS011;6464;42.494;27.470;2023-04-24T05:28:25;0.10;;;0.10;;
12800;SDS011;6464;42.494;27.470;2023-04-24T05:36:52;0.10;;;0.10;;
12800;SDS011;6464;42.494;27.470;2023-04-24T05:39:27;0.10;;;0.10;;
12800;SDS011;6464;42.494;27.470;2023-04-24T05:41:55;0.10;;;0.10;;
12800;SDS011;6464;42.494;27.470;2023-04-24T05:44:36;0.10;;;0.10;;
12800;SDS011;6464;42.494;27.470;2023-04-24T05:47:10;0.20;;;0.20;;
12800;SDS011;6464;42.494;27.470;2023-04-24T05:49:41;0.20;;;0.20;;
12800;SDS011;6464;42.494;27.470;2023-04-24T05:52:25;0.20;;;0.20;;
12800;SDS011;6464;42.494;27.470;2023-04-24T06:00:57;0.40;;;0.40;;
12800;SDS011;6464;42.494;27.470;2023-04-24T06:03:31;0.30;;;0.30;;
12800;SDS011;6464;42.494;27.470;2023-04-24T06:06:02;0.50;;;0.50;;
12800;SDS011;6464;42.494;27.470;2023-04-24T06:08:35;0.60;;;0.60;;
12800;SDS011;6464;42.494;27.470;2023-04-24T06:11:24;0.60;;;0.60;;
12800;SDS011;6464;42.494;27.470;2023-04-24T06:27:07;0.50;;;0.50;;
12800;SDS011;6464;42.494;27.470;2023-04-24T06:29:36;0.50;;;0.50;;
12800;SDS011;6464;42.494;27.470;2023-04-24T06:32:23;0.60;;;0.60;;
12800;SDS011;6464;42.494;27.470;2023-04-24T06:34:56;0.70;;;0.70;;
12800;SDS011;6464;42.494;27.470;2023-04-24T06:37:26;0.60;;;0.60;;
12800;SDS011;6464;42.494;27.470;2023-04-24T06:39:58;0.60;;;0.60;;
12800;SDS011;6464;42.494;27.470;2023-04-24T06:42:30;0.60;;;0.60;;
12800;SDS011;6464;42.494;27.470;2023-04-24T06:45:10;0.60;;;0.60;;
12800;SDS011;6464;42.494;27.470;2023-04-24T06:47:44;0.60;;;0.60;;
12800;SDS011;6464;42.494;27.470;2023-04-24T06:50:13;0.70;;;0.70;;
12800;SDS011;6464;42.494;27.470;2023-04-24T06:52:43;0.70;;;0.70;;
12800;SDS011;6464;42.494;27.470;2023-04-24T06:55:16;0.70;;;0.70;;
12800;SDS011;6464;42.494;27.470;2023-04-24T06:58:02;0.90;;;0.90;;
12800;SDS011;6464;42.494;27.470;2023-04-24T07:00:36;1.00;;;1.00;;
12800;SDS011;6464;42.494;27.470;2023-04-24T07:03:14;1.20;;;1.20;;
12800;SDS011;6464;42.494;27.470;2023-04-24T07:05:50;1.40;;;1.40;;
12800;SDS011;6464;42.494;27.470;2023-04-24T07:08:28;1.30;;;1.30;;
12800;SDS011;6464;42.494;27.470;2023-04-24T07:11:09;1.30;;;1.30;;
12800;SDS011;6464;42.494;27.470;2023-04-24T07:19:09;1.50;;;1.50;;
12800;SDS011;6464;42.494;27.470;2023-04-24T07:21:41;1.60;;;1.60;;
12800;SDS011;6464;42.494;27.470;2023-04-24T07:24:22;1.80;;;1.80;;
12800;SDS011;6464;42.494;27.470;2023-04-24T07:29:26;1.90;;;1.90;;
12800;SDS011;6464;42.494;27.470;2023-04-24T07:31:57;2.25;;;2.25;;
12800;SDS011;6464;42.494;27.470;2023-04-24T07:34:26;2.13;;;2.13;;
12800;SDS011;6464;42.494;27.470;2023-04-24T07:37:04;2.35;;;2.35;;
12800;SDS011;6464;42.494;27.470;2023-04-24T07:39:42;2.20;;;2.20;;
12800;SDS011;6464;42.494;27.470;2023-04-24T07:42:27;2.50;;;2.50;;
12800;SDS011;6464;42.494;27.470;2023-04-24T07:45:06;2.40;;;2.40;;
12800;SDS011;6464;42.494;27.470;2023-04-24T07:47:51;2.60;;;2.60;;
12800;SDS011;6464;42.494;27.470;2023-04-24T07:50:20;2.40;;;2.40;;
12800;SDS011;6464;42.494;27.470;2023-04-24T07:52:48;2.30;;;2.30;;
12800;SDS011;6464;42.494;27.470;2023-04-24T07:55:16;2.30;;;2.30;;
12800;SDS011;6464;42.494;27.470;2023-04-24T07:57:43;2.22;;;2.22;;
12800;SDS011;6464;42.494;27.470;2023-04-24T08:00:11;2.08;;;2.08;;
12800;SDS011;6464;42.494;27.470;2023-04-24T08:02:40;2.20;;;2.20;;
12800;SDS011;6464;42.494;27.470;2023-04-24T08:05:09;2.10;;;2.10;;
12800;SDS011;6464;42.494;27.470;2023-04-24T08:07:37;1.92;;;1.92;;
12800;SDS011;6464;42.494;27.470;2023-04-24T08:10:10;2.30;;;2.30;;
12800;SDS011;6464;42.494;27.470;2023-04-24T08:12:38;2.00;;;2.00;;
12800;SDS011;6464;42.494;27.470;2023-04-24T08:15:07;2.25;;;2.25;;
12800;SDS011;6464;42.494;27.470;2023-04-24T08:17:35;2.30;;;2.30;;
12800;SDS011;6464;42.494;27.470;2023-04-24T08:20:04;2.20;;;2.20;;
12800;SDS011;6464;42.494;27.470;2023-04-24T08:22:40;2.60;;;2.60;;
12800;SDS011;6464;42.494;27.470;2023-04-24T08:25:12;2.90;;;2.90;;
12800;SDS011;6464;42.494;27.470;2023-04-24T08:27:40;2.72;;;2.72;;
12800;SDS011;6464;42.494;27.470;2023-04-24T08:30:08;2.90;;;2.90;;
12800;SDS011;6464;42.494;27.470;2023-04-24T08:32:35;2.50;;;2.50;;
12800;SDS011;6464;42.494;27.470;2023-04-24T08:35:03;2.70;;;2.70;;
12800;SDS011;6464;42.494;27.470;2023-04-24T08:37:33;3.00;;;3.00;;
12800;SDS011;6464;42.494;27.470;2023-04-24T08:40:02;3.45;;;3.45;;
12800;SDS011;6464;42.494;27.470;2023-04-24T08:42:37;3.40;;;3.40;;
12800;SDS011;6464;42.494;27.470;2023-04-24T08:45:07;3.72;;;3.70;;
12800;SDS011;6464;42.494;27.470;2023-04-24T08:47:35;3.45;;;3.45;;
12800;SDS011;6464;42.494;27.470;2023-04-24T08:50:04;3.30;;;3.30;;
12800;SDS011;6464;42.494;27.470;2023-04-24T08:52:33;3.30;;;3.30;;
12800;SDS011;6464;42.494;27.470;2023-04-24T08:55:03;3.40;;;3.40;;
12800;SDS011;6464;42.494;27.470;2023-04-24T08:57:31;3.10;;;3.10;;
12800;SDS011;6464;42.494;27.470;2023-04-24T09:00:01;3.08;;;3.08;;
12800;SDS011;6464;42.494;27.470;2023-04-24T09:02:30;3.00;;;3.00;;
12800;SDS011;6464;42.494;27.470;2023-04-24T09:05:00;3.10;;;3.10;;
12800;SDS011;6464;42.494;27.470;2023-04-24T09:07:29;3.10;;;3.10;;
12800;SDS011;6464;42.494;27.470;2023-04-24T09:10:01;3.00;;;3.00;;
12800;SDS011;6464;42.494;27.470;2023-04-24T09:12:32;3.03;;;3.03;;
12800;SDS011;6464;42.494;27.470;2023-04-24T09:15:02;2.90;;;2.90;;
12800;SDS011;6464;42.494;27.470;2023-04-24T09:17:31;3.13;;;3.13;;
12800;SDS011;6464;42.494;27.470;2023-04-24T09:20:00;3.50;;;3.50;;
12800;SDS011;6464;42.494;27.470;2023-04-24T09:22:29;3.40;;;3.40;;
12800;SDS011;6464;42.494;27.470;2023-04-24T09:25:04;3.40;;;3.40;;
12800;SDS011;6464;42.494;27.470;2023-04-24T09:27:34;3.35;;;3.35;;
12800;SDS011;6464;42.494;27.470;2023-04-24T09:30:02;3.50;;;3.50;;
12800;SDS011;6464;42.494;27.470;2023-04-24T09:32:30;4.25;;;4.15;;
12800;SDS011;6464;42.494;27.470;2023-04-24T09:35:08;5.00;;;4.90;;
12800;SDS011;6464;42.494;27.470;2023-04-24T09:37:37;5.28;;;5.18;;
12800;SDS011;6464;42.494;27.470;2023-04-24T09:40:11;5.70;;;5.60;;
12800;SDS011;6464;42.494;27.470;2023-04-24T09:42:40;6.13;;;5.97;;
12800;SDS011;6464;42.494;27.470;2023-04-24T09:45:10;6.60;;;6.40;;
12800;SDS011;6464;42.494;27.470;2023-04-24T09:47:40;6.72;;;6.53;;
12800;SDS011;6464;42.494;27.470;2023-04-24T09:50:11;6.70;;;6.50;;
12800;SDS011;6464;42.494;27.470;2023-04-24T09:52:40;7.13;;;6.93;;
12800;SDS011;6464;42.494;27.470;2023-04-24T09:55:18;7.03;;;6.82;;
12800;SDS011;6464;42.494;27.470;2023-04-24T09:57:53;7.03;;;6.82;;
12800;SDS011;6464;42.494;27.470;2023-04-24T10:00:24;7.10;;;6.90;;
12800;SDS011;6464;42.494;27.470;2023-04-24T10:02:55;7.47;;;7.28;;
12800;SDS011;6464;42.494;27.470;2023-04-24T10:05:24;7.35;;;7.15;;
12800;SDS011;6464;42.494;27.470;2023-04-24T10:07:55;7.30;;;7.10;;
12800;SDS011;6464;42.494;27.470;2023-04-24T10:10:24;7.63;;;7.43;;
12800;SDS011;6464;42.494;27.470;2023-04-24T10:12:52;7.50;;;7.30;;
12800;SDS011;6464;42.494;27.470;2023-04-24T10:15:21;7.45;;;7.25;;
12800;SDS011;6464;42.494;27.470;2023-04-24T10:17:48;7.38;;;7.18;;
12800;SDS011;6464;42.494;27.470;2023-04-24T10:20:18;7.57;;;7.38;;
12800;SDS011;6464;42.494;27.470;2023-04-24T10:22:47;7.50;;;7.30;;
12800;SDS011;6464;42.494;27.470;2023-04-24T10:25:17;7.75;;;7.55;;
12800;SDS011;6464;42.494;27.470;2023-04-24T10:27:47;8.50;;;8.20;;
12800;SDS011;6464;42.494;27.470;2023-04-24T10:30:16;8.07;;;7.88;;
12800;SDS011;6464;42.494;27.470;2023-04-24T10:32:44;8.35;;;8.05;;
12800;SDS011;6464;42.494;27.470;2023-04-24T10:35:12;8.73;;;8.43;;
12800;SDS011;6464;42.494;27.470;2023-04-24T10:37:40;8.40;;;8.10;;
12800;SDS011;6464;42.494;27.470;2023-04-24T10:40:11;7.90;;;7.70;;
12800;SDS011;6464;42.494;27.470;2023-04-24T10:42:43;7.80;;;7.60;;
12800;SDS011;6464;42.494;27.470;2023-04-24T10:45:18;8.15;;;7.88;;
12800;SDS011;6464;42.494;27.470;2023-04-24T10:47:53;8.40;;;8.10;;
12800;SDS011;6464;42.494;27.470;2023-04-24T10:50:25;8.07;;;7.88;;
12800;SDS011;6464;42.494;27.470;2023-04-24T10:52:53;7.97;;;7.78;;
12800;SDS011;6464;42.494;27.470;2023-04-24T10:55:44;8.10;;;7.90;;
12800;SDS011;6464;42.494;27.470;2023-04-24T10:58:13;8.35;;;8.05;;
12800;SDS011;6464;42.494;27.470;2023-04-24T11:00:42;8.20;;;8.00;;
12800;SDS011;6464;42.494;27.470;2023-04-24T11:03:22;8.10;;;7.90;;
12800;SDS011;6464;42.494;27.470;2023-04-24T11:05:57;8.02;;;7.82;;
12800;SDS011;6464;42.494;27.470;2023-04-24T11:08:27;7.85;;;7.65;;
12800;SDS011;6464;42.494;27.470;2023-04-24T11:10:59;8.20;;;7.97;;
12800;SDS011;6464;42.494;27.470;2023-04-24T11:16:31;8.05;;;7.85;;
12800;SDS011;6464;42.494;27.470;2023-04-24T11:19:03;7.93;;;7.72;;
12800;SDS011;6464;42.494;27.470;2023-04-24T11:21:32;8.00;;;7.80;;
12800;SDS011;6464;42.494;27.470;2023-04-24T11:24:27;7.60;;;7.40;;
12800;SDS011;6464;42.494;27.470;2023-04-24T11:26:56;8.00;;;7.80;;
12800;SDS011;6464;42.494;27.470;2023-04-24T11:29:40;7.90;;;7.70;;
12800;SDS011;6464;42.494;27.470;2023-04-24T11:32:16;8.00;;;7.80;;
12800;SDS011;6464;42.494;27.470;2023-04-24T11:34:48;8.15;;;7.95;;
12800;SDS011;6464;42.494;27.470;2023-04-24T11:37:16;8.80;;;8.50;;
12800;SDS011;6464;42.494;27.470;2023-04-24T11:39:43;8.60;;;8.30;;
12800;SDS011;6464;42.494;27.470;2023-04-24T11:42:10;8.15;;;7.95;;
12800;SDS011;6464;42.494;27.470;2023-04-24T11:44:37;8.25;;;8.05;;
12800;SDS011;6464;42.494;27.470;2023-04-24T11:47:05;7.95;;;7.75;;
12800;SDS011;6464;42.494;27.470;2023-04-24T11:49:33;8.05;;;7.85;;
12800;SDS011;6464;42.494;27.470;2023-04-24T11:52:00;8.20;;;7.97;;
12800;SDS011;6464;42.494;27.470;2023-04-24T11:54:27;8.13;;;7.93;;
12800;SDS011;6464;42.494;27.470;2023-04-24T11:56:55;8.10;;;7.90;;
12800;SDS011;6464;42.494;27.470;2023-04-24T11:59:22;8.05;;;7.85;;
12800;SDS011;6464;42.494;27.470;2023-04-24T12:01:49;7.88;;;7.68;;
12800;SDS011;6464;42.494;27.470;2023-04-24T12:04:18;7.63;;;7.43;;
12800;SDS011;6464;42.494;27.470;2023-04-24T12:07:00;8.10;;;7.90;;
12800;SDS011;6464;42.494;27.470;2023-04-24T12:09:27;8.60;;;8.30;;
12800;SDS011;6464;42.494;27.470;2023-04-24T12:11:55;8.75;;;8.45;;
12800;SDS011;6464;42.494;27.470;2023-04-24T12:14:23;8.70;;;8.40;;
12800;SDS011;6464;42.494;27.470;2023-04-24T12:16:50;8.60;;;8.30;;
12800;SDS011;6464;42.494;27.470;2023-04-24T12:19:20;8.77;;;8.48;;
12800;SDS011;6464;42.494;27.470;2023-04-24T12:21:58;8.90;;;8.60;;
12800;SDS011;6464;42.494;27.470;2023-04-24T12:24:26;8.70;;;8.40;;
12800;SDS011;6464;42.494;27.470;2023-04-24T12:26:53;9.05;;;8.75;;
12800;SDS011;6464;42.494;27.470;2023-04-24T12:29:20;8.70;;;8.40;;
12800;SDS011;6464;42.494;27.470;2023-04-24T12:31:47;8.98;;;8.68;;
12800;SDS011;6464;42.494;27.470;2023-04-24T12:34:17;8.90;;;8.60;;
12800;SDS011;6464;42.494;27.470;2023-04-24T12:36:46;9.00;;;8.70;;
12800;SDS011;6464;42.494;27.470;2023-04-24T12:39:14;9.27;;;8.98;;
12800;SDS011;6464;42.494;27.470;2023-04-24T12:41:50;8.75;;;8.45;;
12800;SDS011;6464;42.494;27.470;2023-04-24T12:44:28;9.02;;;8.73;;
12800;SDS011;6464;42.494;27.470;2023-04-24T12:46:55;8.65;;;8.35;;
12800;SDS011;6464;42.494;27.470;2023-04-24T12:49:24;8.80;;;8.50;;
12800;SDS011;6464;42.494;27.470;2023-04-24T12:51:50;8.15;;;7.95;;
12800;SDS011;6464;42.494;27.470;2023-04-24T12:54:18;8.60;;;8.30;;
12800;SDS011;6464;42.494;27.470;2023-04-24T12:56:44;8.10;;;7.90;;
12800;SDS011;6464;42.494;27.470;2023-04-24T12:59:11;7.57;;;7.38;;
12800;SDS011;6464;42.494;27.470;2023-04-24T13:01:38;8.40;;;8.10;;
12800;SDS011;6464;42.494;27.470;2023-04-24T13:04:05;8.50;;;8.20;;
12800;SDS011;6464;42.494;27.470;2023-04-24T13:06:34;8.40;;;8.10;;
12800;SDS011;6464;42.494;27.470;2023-04-24T13:09:01;8.60;;;8.30;;
12800;SDS011;6464;42.494;27.470;2023-04-24T13:11:28;8.90;;;8.60;;
12800;SDS011;6464;42.494;27.470;2023-04-24T13:13:55;8.90;;;8.60;;
12800;SDS011;6464;42.494;27.470;2023-04-24T13:16:22;8.70;;;8.40;;
12800;SDS011;6464;42.494;27.470;2023-04-24T13:18:49;7.90;;;7.70;;
12800;SDS011;6464;42.494;27.470;2023-04-24T13:21:16;8.00;;;7.80;;
12800;SDS011;6464;42.494;27.470;2023-04-24T13:23:44;7.97;;;7.78;;
12800;SDS011;6464;42.494;27.470;2023-04-24T13:26:11;7.82;;;7.63;;
12800;SDS011;6464;42.494;27.470;2023-04-24T13:28:38;8.10;;;7.90;;
12800;SDS011;6464;42.494;27.470;2023-04-24T13:31:05;8.13;;;7.93;;
12800;SDS011;6464;42.494;27.470;2023-04-24T13:33:32;7.82;;;7.63;;
12800;SDS011;6464;42.494;27.470;2023-04-24T13:35:59;7.80;;;7.60;;
12800;SDS011;6464;42.494;27.470;2023-04-24T13:38:26;7.93;;;7.72;;
12800;SDS011;6464;42.494;27.470;2023-04-24T13:40:55;8.00;;;7.80;;
12800;SDS011;6464;42.494;27.470;2023-04-24T13:43:21;7.90;;;7.70;;
12800;SDS011;6464;42.494;27.470;2023-04-24T13:45:49;8.10;;;7.90;;
12800;SDS011;6464;42.494;27.470;2023-04-24T13:48:15;7.95;;;7.75;;
12800;SDS011;6464;42.494;27.470;2023-04-24T13:50:43;8.00;;;7.80;;
12800;SDS011;6464;42.494;27.470;2023-04-24T13:53:13;8.30;;;8.00;;
12800;SDS011;6464;42.494;27.470;2023-04-24T13:55:40;8.40;;;8.10;;
12800;SDS011;6464;42.494;27.470;2023-04-24T13:58:08;8.15;;;7.95;;
12800;SDS011;6464;42.494;27.470;2023-04-24T14:00:35;8.40;;;8.10;;
12800;SDS011;6464;42.494;27.470;2023-04-24T14:03:02;8.10;;;7.90;;
12800;SDS011;6464;42.494;27.470;2023-04-24T14:05:30;7.88;;;7.68;;
12800;SDS011;6464;42.494;27.470;2023-04-24T14:07:56;7.80;;;7.60;;
12800;SDS011;6464;42.494;27.470;2023-04-24T14:10:23;8.70;;;8.40;;
12800;SDS011;6464;42.494;27.470;2023-04-24T14:12:52;8.27;;;8.02;;
12800;SDS011;6464;42.494;27.470;2023-04-24T14:15:21;7.85;;;7.65;;
12800;SDS011;6464;42.494;27.470;2023-04-24T14:17:48;7.82;;;7.63;;
12800;SDS011;6464;42.494;27.470;2023-04-24T14:20:15;8.10;;;7.90;;
12800;SDS011;6464;42.494;27.470;2023-04-24T14:22:42;7.82;;;7.63;;
12800;SDS011;6464;42.494;27.470;2023-04-24T14:25:09;7.90;;;7.70;;
12800;SDS011;6464;42.494;27.470;2023-04-24T14:27:36;7.72;;;7.53;;
12800;SDS011;6464;42.494;27.470;2023-04-24T14:30:03;7.90;;;7.70;;
12800;SDS011;6464;42.494;27.470;2023-04-24T14:32:33;7.90;;;7.70;;
12800;SDS011;6464;42.494;27.470;2023-04-24T14:35:00;7.90;;;7.70;;
12800;SDS011;6464;42.494;27.470;2023-04-24T14:37:27;7.90;;;7.70;;
12800;SDS011;6464;42.494;27.470;2023-04-24T14:39:54;7.72;;;7.53;;
12800;SDS011;6464;42.494;27.470;2023-04-24T14:42:21;7.70;;;7.50;;
12800;SDS011;6464;42.494;27.470;2023-04-24T14:44:48;7.53;;;7.32;;
12800;SDS011;6464;42.494;27.470;2023-04-24T14:47:15;7.88;;;7.68;;
12800;SDS011;6464;42.494;27.470;2023-04-24T14:49:44;8.02;;;7.82;;
12800;SDS011;6464;42.494;27.470;2023-04-24T14:52:10;7.80;;;7.60;;
12800;SDS011;6464;42.494;27.470;2023-04-24T14:54:37;7.97;;;7.78;;
12800;SDS011;6464;42.494;27.470;2023-04-24T14:57:04;8.18;;;7.97;;
12800;SDS011;6464;42.494;27.470;2023-04-24T14:59:31;8.45;;;8.15;;
12800;SDS011;6464;42.494;27.470;2023-04-24T15:01:58;8.30;;;8.00;;
12800;SDS011;6464;42.494;27.470;2023-04-24T15:04:26;8.40;;;8.10;;
12800;SDS011;6464;42.494;27.470;2023-04-24T15:06:57;8.05;;;7.85;;
12800;SDS011;6464;42.494;27.470;2023-04-24T15:09:24;8.15;;;7.93;;
12800;SDS011;6464;42.494;27.470;2023-04-24T15:11:52;7.88;;;7.68;;
12800;SDS011;6464;42.494;27.470;2023-04-24T15:14:20;7.50;;;7.30;;
12800;SDS011;6464;42.494;27.470;2023-04-24T15:16:47;7.90;;;7.70;;
12800;SDS011;6464;42.494;27.470;2023-04-24T15:19:15;7.60;;;7.40;;
12800;SDS011;6464;42.494;27.470;2023-04-24T15:21:46;7.25;;;7.05;;
12800;SDS011;6464;42.494;27.470;2023-04-24T15:24:15;7.60;;;7.40;;
12800;SDS011;6464;42.494;27.470;2023-04-24T15:26:42;7.45;;;7.25;;
12800;SDS011;6464;42.494;27.470;2023-04-24T15:29:11;7.68;;;7.47;;
12800;SDS011;6464;42.494;27.470;2023-04-24T15:31:40;7.38;;;7.18;;
12800;SDS011;6464;42.494;27.470;2023-04-24T15:34:07;7.60;;;7.40;;
12800;SDS011;6464;42.494;27.470;2023-04-24T15:36:38;7.50;;;7.30;;
12800;SDS011;6464;42.494;27.470;2023-04-24T15:39:06;7.20;;;7.00;;
12800;SDS011;6464;42.494;27.470;2023-04-24T15:41:36;7.03;;;6.82;;
12800;SDS011;6464;42.494;27.470;2023-04-24T15:44:05;7.20;;;7.00;;
12800;SDS011;6464;42.494;27.470;2023-04-24T15:46:36;7.30;;;7.10;;
12800;SDS011;6464;42.494;27.470;2023-04-24T15:49:17;7.20;;;7.00;;
12800;SDS011;6464;42.494;27.470;2023-04-24T15:51:45;7.10;;;6.90;;
12800;SDS011;6464;42.494;27.470;2023-04-24T15:54:13;7.10;;;6.90;;
12800;SDS011;6464;42.494;27.470;2023-04-24T15:56:45;6.38;;;6.18;;
12800;SDS011;6464;42.494;27.470;2023-04-24T15:59:13;6.55;;;6.35;;
12800;SDS011;6464;42.494;27.470;2023-04-24T16:01:40;6.40;;;6.20;;
12800;SDS011;6464;42.494;27.470;2023-04-24T16:04:07;6.05;;;5.90;;
12800;SDS011;6464;42.494;27.470;2023-04-24T16:06:35;6.20;;;6.00;;
12800;SDS011;6464;42.494;27.470;2023-04-24T16:09:03;6.03;;;5.90;;
12800;SDS011;6464;42.494;27.470;2023-04-24T16:11:31;5.88;;;5.78;;
12800;SDS011;6464;42.494;27.470;2023-04-24T16:14:02;5.70;;;5.60;;
12800;SDS011;6464;42.494;27.470;2023-04-24T16:16:29;5.60;;;5.50;;
12800;SDS011;6464;42.494;27.470;2023-04-24T16:18:57;5.80;;;5.70;;
12800;SDS011;6464;42.494;27.470;2023-04-24T16:21:25;5.30;;;5.20;;
12800;SDS011;6464;42.494;27.470;2023-04-24T16:23:52;4.90;;;4.80;;
12800;SDS011;6464;42.494;27.470;2023-04-24T16:26:20;4.80;;;4.70;;
12800;SDS011;6464;42.494;27.470;2023-04-24T16:28:47;4.45;;;4.35;;
12800;SDS011;6464;42.494;27.470;2023-04-24T16:31:16;4.50;;;4.40;;
12800;SDS011;6464;42.494;27.470;2023-04-24T16:33:43;4.40;;;4.30;;
12800;SDS011;6464;42.494;27.470;2023-04-24T16:36:11;4.10;;;4.00;;
12800;SDS011;6464;42.494;27.470;2023-04-24T16:38:39;4.15;;;4.05;;
12800;SDS011;6464;42.494;27.470;2023-04-24T16:41:07;4.00;;;3.90;;
12800;SDS011;6464;42.494;27.470;2023-04-24T16:43:34;4.07;;;3.97;;
12800;SDS011;6464;42.494;27.470;2023-04-24T16:46:02;4.10;;;4.00;;
12800;SDS011;6464;42.494;27.470;2023-04-24T16:48:33;3.72;;;3.70;;
12800;SDS011;6464;42.494;27.470;2023-04-24T16:51:00;3.88;;;3.78;;
12800;SDS011;6464;42.494;27.470;2023-04-24T16:53:28;3.70;;;3.70;;
12800;SDS011;6464;42.494;27.470;2023-04-24T16:55:56;3.60;;;3.60;;
12800;SDS011;6464;42.494;27.470;2023-04-24T16:58:26;4.05;;;3.95;;
12800;SDS011;6464;42.494;27.470;2023-04-24T17:00:55;4.00;;;3.90;;
12800;SDS011;6464;42.494;27.470;2023-04-24T17:03:23;3.40;;;3.40;;
12800;SDS011;6464;42.494;27.470;2023-04-24T17:05:55;3.90;;;3.80;;
12800;SDS011;6464;42.494;27.470;2023-04-24T17:08:23;4.10;;;4.00;;
12800;SDS011;6464;42.494;27.470;2023-04-24T17:10:52;4.00;;;3.90;;
12800;SDS011;6464;42.494;27.470;2023-04-24T17:13:21;3.90;;;3.80;;
12800;SDS011;6464;42.494;27.470;2023-04-24T17:15:58;3.70;;;3.70;;
12800;SDS011;6464;42.494;27.470;2023-04-24T17:18:29;3.50;;;3.50;;
12800;SDS011;6464;42.494;27.470;2023-04-24T17:21:02;3.28;;;3.28;;
12800;SDS011;6464;42.494;27.470;2023-04-24T17:23:44;3.10;;;3.10;;
12800;SDS011;6464;42.494;27.470;2023-04-24T17:26:14;2.80;;;2.80;;
12800;SDS011;6464;42.494;27.470;2023-04-24T17:28:43;2.60;;;2.60;;
12800;SDS011;6464;42.494;27.470;2023-04-24T17:31:13;2.83;;;2.83;;
12800;SDS011;6464;42.494;27.470;2023-04-24T17:33:41;2.40;;;2.40;;
12800;SDS011;6464;42.494;27.470;2023-04-24T17:36:13;2.30;;;2.30;;
12800;SDS011;6464;42.494;27.470;2023-04-24T17:38:50;2.10;;;2.10;;
12800;SDS011;6464;42.494;27.470;2023-04-24T17:41:18;2.10;;;2.10;;
12800;SDS011;6464;42.494;27.470;2023-04-24T17:43:47;2.15;;;2.15;;
12800;SDS011;6464;42.494;27.470;2023-04-24T17:46:15;2.53;;;2.53;;
12800;SDS011;6464;42.494;27.470;2023-04-24T17:48:46;2.60;;;2.60;;
12800;SDS011;6464;42.494;27.470;2023-04-24T17:51:24;2.42;;;2.42;;
12800;SDS011;6464;42.494;27.470;2023-04-24T17:53:53;2.30;;;2.30;;
12800;SDS011;6464;42.494;27.470;2023-04-24T17:56:24;2.00;;;2.00;;
12800;SDS011;6464;42.494;27.470;2023-04-24T17:58:55;2.40;;;2.40;;
12800;SDS011;6464;42.494;27.470;2023-04-24T18:01:45;2.00;;;2.00;;
12800;SDS011;6464;42.494;27.470;2023-04-24T18:04:19;2.00;;;2.00;;
12800;SDS011;6464;42.494;27.470;2023-04-24T18:10:02;1.70;;;1.70;;
12800;SDS011;6464;42.494;27.470;2023-04-24T18:12:30;1.70;;;1.70;;
12800;SDS011;6464;42.494;27.470;2023-04-24T18:15:13;1.50;;;1.50;;
12800;SDS011;6464;42.494;27.470;2023-04-24T18:17:44;1.40;;;1.40;;
12800;SDS011;6464;42.494;27.470;2023-04-24T18:20:27;1.20;;;1.20;;
12800;SDS011;6464;42.494;27.470;2023-04-24T18:25:56;1.10;;;1.10;;
12800;SDS011;6464;42.494;27.470;2023-04-24T18:28:34;1.00;;;1.00;;
12800;SDS011;6464;42.494;27.470;2023-04-24T18:31:06;1.00;;;1.00;;
12800;SDS011;6464;42.494;27.470;2023-04-24T18:33:36;0.80;;;0.80;;
12800;SDS011;6464;42.494;27.470;2023-04-24T18:36:05;0.70;;;0.70;;
12800;SDS011;6464;42.494;27.470;2023-04-24T18:38:57;0.70;;;0.70;;
12800;SDS011;6464;42.494;27.470;2023-04-24T18:41:34;0.53;;;0.53;;
12800;SDS011;6464;42.494;27.470;2023-04-24T18:44:06;0.50;;;0.50;;
12800;SDS011;6464;42.494;27.470;2023-04-24T18:46:50;0.40;;;0.40;;
12800;SDS011;6464;42.494;27.470;2023-04-24T18:49:18;0.40;;;0.40;;
12800;SDS011;6464;42.494;27.470;2023-04-24T18:51:51;0.50;;;0.50;;
12800;SDS011;6464;42.494;27.470;2023-04-24T18:57:50;0.40;;;0.40;;
12800;SDS011;6464;42.494;27.470;2023-04-24T19:00:22;0.30;;;0.30;;
12800;SDS011;6464;42.494;27.470;2023-04-24T19:02:55;0.30;;;0.30;;
12800;SDS011;6464;42.494;27.470;2023-04-24T19:05:49;0.30;;;0.30;;
12800;SDS011;6464;42.494;27.470;2023-04-24T19:08:38;0.30;;;0.30;;
12800;SDS011;6464;42.494;27.470;2023-04-24T19:11:16;0.30;;;0.30;;
12800;SDS011;6464;42.494;27.470;2023-04-24T19:13:54;0.20;;;0.20;;
12800;SDS011;6464;42.494;27.470;2023-04-24T19:16:32;0.20;;;0.20;;
12800;SDS011;6464;42.494;27.470;2023-04-24T19:19:01;0.30;;;0.30;;
12800;SDS011;6464;42.494;27.470;2023-04-24T19:21:41;0.23;;;0.23;;
12800;SDS011;6464;42.494;27.470;2023-04-24T19:24:12;0.30;;;0.30;;
12800;SDS011;6464;42.494;27.470;2023-04-24T19:26:57;0.20;;;0.20;;
12800;SDS011;6464;42.494;27.470;2023-04-24T19:29:36;0.10;;;0.10;;
12800;SDS011;6464;42.494;27.470;2023-04-24T19:32:13;0.17;;;0.17;;
12800;SDS011;6464;42.494;27.470;2023-04-24T19:34:47;0.20;;;0.20;;
12800;SDS011;6464;42.494;27.470;2023-04-24T19:37:22;0.20;;;0.20;;
12800;SDS011;6464;42.494;27.470;2023-04-24T19:39:56;0.10;;;0.10;;
12800;SDS011;6464;42.494;27.470;2023-04-24T19:42:28;0.10;;;0.10;;
12800;SDS011;6464;42.494;27.470;2023-04-24T19:45:12;0.20;;;0.20;;
12800;SDS011;6464;42.494;27.470;2023-04-24T19:47:42;0.10;;;0.10;;
12800;SDS011;6464;42.494;27.470;2023-04-24T19:50:14;0.10;;;0.10;;
12800;SDS011;6464;42.494;27.470;2023-04-24T19:52:44;0.20;;;0.20;;
12800;SDS011;6464;42.494;27.470;2023-04-24T19:55:12;0.20;;;0.20;;
12800;SDS011;6464;42.494;27.470;2023-04-24T19:57:42;0.10;;;0.10;;
12800;SDS011;6464;42.494;27.470;2023-04-24T20:00:50;0.10;;;0.10;;
12800;SDS011;6464;42.494;27.470;2023-04-24T20:03:28;0.10;;;0.10;;
12800;SDS011;6464;42.494;27.470;2023-04-24T20:06:07;0.10;;;0.10;;
12800;SDS011;6464;42.494;27.470;2023-04-24T20:08:51;0.10;;;0.10;;
12800;SDS011;6464;42.494;27.470;2023-04-24T20:11:31;0.13;;;0.13;;
12800;SDS011;6464;42.494;27.470;2023-04-24T20:14:02;0.17;;;0.17;;
12800;SDS011;6464;42.494;27.470;2023-04-24T20:16:42;0.10;;;0.10;;
12800;SDS011;6464;42.494;27.470;2023-04-24T20:19:13;0.10;;;0.10;;